Houston, Texas
Traffic Map
Current Weather Conditions
Houston, Texas
Overcast
Overcast
18°
Feels Like: 18°
Wind Chill: 18° Ceiling: 4100
Heat Index: 18° Visibility: 3mi
Dew Point: 18° Wind: 10mph
Humidity: 100% Direction: 100° (E)
Pressure: 29.78in Gusts: 0mph
Raw Report DataKMCJ 230035Z AUTO 10009KT 3SM FEW003 BKN041 OVC060 18/18 A2978 RMK AO1
Traffic Incident Summary
Active as of:
Severity:
Category:
InformationThere was an issue retrieving the traffic information for this location. Please try a different location or try again shortly.
Advertisements
Track Severe Weather on mobile